Time;durP1;ratioP1;P1;durP2;ratioP2;P2;SDS_P1;SDS_P2;PMS_P1;PMS_P2;Temp;Humidity;BMP_temperature;BMP_pressure;BME280_temperature;BME280_humidity;BME280_pressure;Samples;Min_cycle;Max_cycle;Signal;HPM_P1;HPM_P2
2022/02/02 00:03:24;;;;;;;0.00;0.00;;;1.10;78.90;;;;;;20832832;28;20406;-44
2022/02/02 00:13:53;;;;;;;0.00;0.00;;;1.00;78.80;;;;;;20831969;28;20087;-44
2022/02/02 00:24:07;;;;;;;0.00;0.00;;;0.90;78.10;;;;;;20830810;28;20096;-45
2022/02/02 00:34:14;;;;;;;0.00;0.00;;;1.20;77.70;;;;;;20798132;28;20037;-46
2022/02/02 00:44:18;;;;;;;0.00;0.00;;;1.30;76.90;;;;;;20850231;28;20053;-44
2022/02/02 00:54:23;;;;;;;0.05;0.00;;;1.40;77.20;;;;;;20829402;28;20041;-45
2022/02/02 01:04:26;;;;;;;0.20;0.10;;;1.40;77.30;;;;;;20827486;28;20103;-45
2022/02/02 01:15:37;;;;;;;0.00;0.00;;;1.40;76.20;;;;;;20827488;28;20103;-45
2022/02/02 01:35:33;;;;;;;0.00;0.00;;;1.40;74.80;;;;;;20826028;28;20470;-45
2022/02/02 01:45:43;;;;;;;0.00;0.00;;;1.30;75.40;;;;;;20759397;28;20544;-44
2022/02/02 01:55:46;;;;;;;0.00;0.00;;;1.20;74.40;;;;;;20759171;28;20038;-45
2022/02/02 02:05:48;;;;;;;0.00;0.00;;;1.30;74.90;;;;;;20758043;28;20088;-46
2022/02/02 02:15:50;;;;;;;0.00;0.00;;;1.30;72.60;;;;;;20757519;28;20037;-44
2022/02/02 02:25:53;;;;;;;0.00;0.00;;;1.30;74.20;;;;;;20756837;28;20042;-45
2022/02/02 02:56:21;;;;;;;0.00;0.00;;;2.30;71.20;;;;;;20754336;28;20401;-44
2022/02/02 03:58:22;;;;;;;0.00;0.00;;;4.10;65.30;;;;;;20718709;28;19940;-45
2022/02/02 04:08:31;;;;;;;0.00;0.00;;;3.70;67.60;;;;;;20734572;28;20034;-47
2022/02/02 05:51:33;;;;;;;0.00;0.00;;;4.40;66.70;;;;;;20653536;28;20115;-47
2022/02/02 06:01:42;;;;;;;0.00;0.00;;;4.50;66.10;;;;;;20707690;28;20084;-48
2022/02/02 06:11:48;;;;;;;0.00;0.00;;;4.60;67.20;;;;;;20823440;28;20037;-44
2022/02/02 06:22:00;;;;;;;0.00;0.00;;;4.40;66.10;;;;;;20805624;28;20041;-45
2022/02/02 06:32:04;;;;;;;;;;;4.40;68.70;;;;;;20821827;28;20104;-45
2022/02/02 06:42:09;;;;;;;0.00;0.00;;;3.90;69.80;;;;;;20841513;28;19916;-46
2022/02/02 06:52:23;;;;;;;0.00;0.00;;;3.70;70.80;;;;;;20819901;28;20335;-46
2022/02/02 07:33:15;;;;;;;0.30;0.00;;;4.20;71.10;;;;;;20818376;28;20393;-47
2022/02/02 07:43:25;;;;;;;0.10;0.00;;;4.30;70.20;;;;;;20812090;28;20119;-48
2022/02/02 07:53:36;;;;;;;0.00;0.00;;;4.10;71.20;;;;;;20899505;28;20705;-46
2022/02/02 08:03:42;;;;;;;0.00;0.00;;;4.10;71.10;;;;;;20881897;28;20095;-46
2022/02/02 08:13:47;;;;;;;0.00;0.00;;;4.70;70.00;;;;;;20832771;28;20033;-45
2022/02/02 08:23:51;;;;;;;1.30;0.00;;;5.60;65.00;;;;;;20815241;28;20037;-46
2022/02/02 08:34:02;;;;;;;0.00;0.00;;;6.90;62.40;;;;;;20833185;28;20057;-47
2022/02/02 08:44:12;;;;;;;0.00;0.00;;;8.40;61.60;;;;;;20812682;28;20049;-45
2022/02/02 09:25:23;;;;;;;0.08;0.00;;;9.80;51.30;;;;;;20808557;28;20037;-45
2022/02/02 09:35:26;;;;;;;0.40;0.17;;;10.20;60.40;;;;;;20826760;28;20657;-46
2022/02/02 09:45:30;;;;;;;0.03;0.00;;;10.30;60.40;;;;;;20824887;28;20080;-47
2022/02/02 09:55:58;;;;;;;0.77;0.00;;;10.20;60.10;;;;;;20823767;28;20041;-46
2022/02/02 10:06:12;;;;;;;0.32;0.20;;;10.80;59.00;;;;;;20807443;28;20060;-45
2022/02/02 10:16:21;;;;;;;0.10;0.08;;;11.50;58.80;;;;;;20823113;28;20095;-44
2022/02/02 10:26:24;;;;;;;0.00;0.00;;;11.70;56.80;;;;;;20822693;28;20382;-47
2022/02/02 10:36:26;;;;;;;0.20;0.00;;;10.90;50.20;;;;;;20822159;28;20114;-46
2022/02/02 10:57:29;;;;;;;0.10;0.00;;;10.80;51.50;;;;;;20803594;28;20551;-45
2022/02/02 11:07:27;;;;;;;0.30;0.05;;;11.00;53.40;;;;;;20800776;28;20405;-44
2022/02/02 11:18:08;;;;;;;0.00;0.00;;;10.70;55.30;;;;;;20786172;28;20088;-44
2022/02/02 11:28:32;;;;;;;0.63;0.10;;;11.30;56.50;;;;;;20818174;28;20060;-43
2022/02/02 11:38:38;;;;;;;0.47;0.00;;;11.70;56.70;;;;;;20817585;28;20046;-44
2022/02/02 11:48:53;;;;;;;0.10;0.00;;;11.10;55.80;;;;;;20801086;28;20405;-47
2022/02/02 11:58:56;;;;;;;3.17;0.17;;;10.10;56.40;;;;;;20817173;28;20436;-46
2022/02/02 12:09:08;;;;;;;0.35;0.00;;;10.00;56.80;;;;;;20799996;28;20083;-43
2022/02/02 13:00:12;;;;;;;0.10;0.00;;;9.50;58.40;;;;;;20827456;28;20041;-45
2022/02/02 13:10:20;;;;;;;0.20;0.00;;;9.70;58.10;;;;;;20812190;28;20103;-44
2022/02/02 13:30:55;;;;;;;0.00;0.00;;;9.00;60.70;;;;;;20810599;28;20555;-44
2022/02/02 13:51:49;;;;;;;0.20;0.10;;;8.90;59.50;;;;;;20749480;28;20544;-45
2022/02/02 14:03:51;;;;;;;0.08;0.00;;;9.10;58.00;;;;;;20744759;28;20045;-45
2022/02/02 14:33:02;;;;;;;0.22;0.10;;;8.30;63.70;;;;;;20740831;28;20084;-44
2022/02/02 14:43:05;;;;;;;0.30;0.10;;;8.00;62.70;;;;;;20741358;28;20099;-44
2022/02/02 14:53:30;;;;;;;0.10;0.10;;;7.60;64.60;;;;;;20886224;28;20037;-46
2022/02/02 15:34:28;;;;;;;0.68;0.20;;;6.40;68.50;;;;;;20727163;28;20042;-43
2022/02/02 16:05:16;;;;;;;0.75;0.10;;;5.00;72.80;;;;;;20734991;28;20092;-45
2022/02/02 16:15:29;;;;;;;0.30;0.10;;;4.70;75.40;;;;;;20736029;28;20030;-42
2022/02/02 16:36:00;;;;;;;0.28;0.10;;;3.90;77.80;;;;;;20732769;28;20022;-45
2022/02/02 16:46:05;;;;;;;0.30;0.10;;;3.60;80.80;;;;;;20749384;28;20042;-47
2022/02/02 16:56:20;;;;;;;2.75;0.22;;;3.30;81.80;;;;;;20750300;28;20029;-43
2022/02/02 17:37:50;;;;;;;0.20;0.00;;;3.40;82.90;;;;;;20557324;28;20487;-46
2022/02/02 18:19:00;;;;;;;0.82;0.00;;;3.30;82.20;;;;;;20738710;28;20042;-43
2022/02/02 20:12:14;;;;;;;0.20;0.00;;;2.40;87.80;;;;;;20702134;28;19935;-43
2022/02/02 20:22:18;;;;;;;0.00;0.00;;;2.40;88.10;;;;;;20833088;28;20041;-43
2022/02/02 20:32:21;;;;;;;0.10;0.00;;;2.50;87.80;;;;;;20814407;28;20037;-52
2022/02/02 20:42:32;;;;;;;0.10;0.00;;;2.50;88.10;;;;;;20791076;28;20554;-57
2022/02/02 21:03:32;;;;;;;0.30;0.00;;;2.70;86.90;;;;;;20821859;28;20064;-46
2022/02/02 21:13:41;;;;;;;0.00;0.00;;;2.70;85.90;;;;;;20802829;28;20111;-46
2022/02/02 21:24:18;;;;;;;0.00;0.00;;;2.70;85.70;;;;;;20823536;28;20103;-46
2022/02/02 21:34:06;;;;;;;0.00;0.00;;;2.80;85.70;;;;;;20805985;28;20448;-47
2022/02/02 21:44:09;;;;;;;0.00;0.00;;;3.20;84.40;;;;;;20825169;28;20097;-46
2022/02/02 21:54:11;;;;;;;0.00;0.00;;;3.30;83.00;;;;;;20821175;28;20037;-46
2022/02/02 22:04:14;;;;;;;1.55;0.00;;;3.30;82.00;;;;;;20813089;28;20033;-44
2022/02/02 22:14:20;;;;;;;0.00;0.00;;;3.70;80.50;;;;;;20820616;28;20485;-43
2022/02/02 22:24:23;;;;;;;0.00;0.00;;;3.80;80.10;;;;;;20818256;28;20037;-44
2022/02/02 22:34:25;;;;;;;0.35;0.00;;;3.60;80.20;;;;;;20817768;28;20037;-44
2022/02/02 22:44:30;;;;;;;0.00;0.00;;;3.50;80.40;;;;;;20820521;28;20095;-43
2022/02/02 22:54:33;;;;;;;0.10;0.00;;;3.30;80.80;;;;;;20816247;28;20060;-45
2022/02/02 23:04:35;;;;;;;0.00;0.00;;;3.00;81.50;;;;;;20799125;28;20041;-44
2022/02/02 23:14:42;;;;;;;0.00;0.00;;;2.90;81.40;;;;;;20813207;28;20041;-43
2022/02/02 23:24:48;;;;;;;0.00;0.00;;;2.80;81.10;;;;;;20797578;28;20378;-44
2022/02/02 23:34:51;;;;;;;0.10;0.00;;;2.60;81.60;;;;;;20813333;28;20037;-44
2022/02/02 23:44:53;;;;;;;0.00;0.00;;;2.20;82.40;;;;;;20813010;28;20118;-44
2022/02/02 23:54:58;;;;;;;0.08;0.00;;;2.00;84.30;;;;;;20795262;28;20056;-42
